Time;durP1;ratioP1;P1;durP2;ratioP2;P2;SDS_P1;SDS_P2;PMS_P1;PMS_P2;Temp;Humidity;BMP_temperature;BMP_pressure;BME280_temperature;BME280_humidity;BME280_pressure;Samples;Min_cycle;Max_cycle;Signal;HPM_P1;HPM_P2
2022/04/18 00:00:22;;;;;;;0.70;0.70;;;7.00;99.90;;;6.53;85.61;100235.59;5009704;28;20686;-78
2022/04/18 00:02:50;;;;;;;0.60;0.60;;;6.00;99.90;;;6.62;85.29;100260.34;5022576;28;20659;-76
2022/04/18 00:05:18;;;;;;;1.05;0.88;;;7.00;99.90;;;6.67;82.61;100248.19;5017697;28;20208;-77
2022/04/18 00:08:14;;;;;;;1.23;1.00;;;6.90;99.90;;;6.64;82.58;100242.88;5020107;28;20211;-77
2022/04/18 00:10:44;;;;;;;0.40;0.40;;;6.90;99.90;;;6.59;84.16;100259.38;4968345;28;20239;-77
2022/04/18 00:13:12;;;;;;;0.40;0.40;;;6.90;99.90;;;6.57;84.09;100268.97;4982867;28;20223;-77
2022/04/18 00:15:40;;;;;;;0.60;0.60;;;6.90;99.90;;;6.55;83.33;100274.19;4985962;28;20205;-77
2022/04/18 00:18:08;;;;;;;0.77;0.77;;;6.90;99.90;;;6.74;83.78;100304.38;4983395;28;20208;-77
2022/04/18 00:20:36;;;;;;;0.68;0.68;;;6.90;99.90;;;6.72;80.99;100278.06;4947543;28;20228;-77
2022/04/18 00:23:04;;;;;;;0.80;0.80;;;6.90;99.90;;;6.60;82.99;100272.56;4968907;28;20691;-77
2022/04/18 00:25:32;;;;;;;0.50;0.50;;;6.90;99.90;;;6.30;85.24;100269.19;4969935;28;20592;-77
2022/04/18 00:28:00;;;;;;;0.50;0.50;;;6.90;99.90;;;5.99;85.15;100259.69;4967754;28;20205;-76
2022/04/18 00:30:28;;;;;;;0.40;0.40;;;6.70;99.90;;;6.13;84.12;100250.41;4948248;28;20225;-77
2022/04/18 00:32:56;;;;;;;0.65;0.65;;;6.60;99.90;;;6.49;82.46;100292.41;4950241;28;20205;-76
2022/04/18 00:35:24;;;;;;;0.50;0.50;;;6.60;99.90;;;6.56;80.24;100275.97;4959987;28;20213;-77
2022/04/18 00:37:52;;;;;;;0.65;0.65;;;6.60;99.90;;;6.60;79.67;100263.78;4965400;28;20205;-76
2022/04/18 00:40:21;;;;;;;0.40;0.40;;;;;;;6.63;79.58;100250.72;4950400;28;20237;-77
2022/04/18 00:42:50;;;;;;;0.50;0.50;;;6.60;99.90;;;6.61;78.17;100244.53;4967049;28;20214;-76
2022/04/18 00:45:18;;;;;;;0.50;0.50;;;6.60;99.90;;;6.85;79.89;100292.38;4966173;28;20212;-77
2022/04/18 00:47:47;;;;;;;1.17;1.08;;;6.60;99.90;;;6.61;78.78;100244.53;4965874;28;20217;-77
2022/04/18 00:50:15;;;;;;;0.60;0.60;;;6.60;99.90;;;6.71;80.22;100268.41;4968013;28;20236;-77
2022/04/18 00:52:44;;;;;;;0.40;0.40;;;6.60;99.90;;;6.66;79.38;100254.28;4948374;28;20209;-77
2022/04/18 00:55:13;;;;;;;0.50;0.50;;;6.70;99.90;;;6.62;78.12;100235.81;4955570;28;20213;-77
2022/04/18 00:57:42;;;;;;;0.50;0.50;;;6.60;99.90;;;6.76;79.09;100265.88;4959170;28;20210;-78
2022/04/18 01:00:11;;;;;;;0.30;0.30;;;6.60;99.90;;;6.71;77.58;100250.03;4949155;28;20252;-77
2022/04/18 01:02:39;;;;;;;0.40;0.40;;;6.60;99.90;;;6.65;77.84;100227.97;4972891;28;20216;-79
2022/04/18 01:05:10;;;;;;;0.47;0.47;;;6.60;99.90;;;6.62;77.52;100215.66;4974601;28;20209;-78
2022/04/18 01:07:39;;;;;;;0.40;0.40;;;6.60;99.90;;;6.54;77.16;100196.22;4970602;28;20206;-79
2022/04/18 01:10:08;;;;;;;0.30;0.30;;;6.50;99.90;;;6.44;77.85;100199.47;4942726;28;20237;-75
2022/04/18 01:12:36;;;;;;;0.50;0.50;;;6.50;99.90;;;6.51;78.19;100219.81;4973949;28;20209;-76
2022/04/18 01:15:09;;;;;;;0.40;0.40;;;6.50;99.90;;;6.43;77.94;100205.59;4959551;28;20216;-76
2022/04/18 01:17:55;;;;;;;0.60;0.60;;;6.40;99.90;;;6.34;78.33;100195.75;4974328;28;20197;-76
2022/04/18 01:20:52;;;;;;;0.52;0.52;;;6.40;99.90;;;6.45;79.31;100211.75;4955028;28;20237;-75
2022/04/18 01:28:58;;;;;;;0.70;0.70;;;6.40;99.90;;;6.47;77.87;100211.78;4916250;29;20250;-77
2022/04/18 01:29:49;;;;;;;0.60;0.60;;;6.40;99.90;;;6.36;78.47;100201.94;4964387;28;20247;-77
2022/04/18 01:32:17;;;;;;;0.40;0.40;;;6.40;99.90;;;6.35;78.16;100201.91;4942218;28;20210;-79
2022/04/18 01:34:45;;;;;;;0.38;0.38;;;6.40;99.90;;;6.27;79.03;100204.34;4961294;28;20231;-78
2022/04/18 01:37:13;;;;;;;0.65;0.65;;;6.40;99.90;;;6.26;78.98;100201.69;4974055;28;20201;-77
2022/04/18 01:39:52;;;;;;;0.38;0.38;;;6.30;99.90;;;6.22;79.61;100220.88;4948411;28;20229;-77
2022/04/18 01:42:20;;;;;;;0.30;0.30;;;6.30;99.90;;;6.20;79.40;100223.44;4949379;28;20227;-76
2022/04/18 01:44:48;;;;;;;0.50;0.50;;;6.30;99.90;;;6.20;80.19;100227.81;4962077;28;20194;-77
2022/04/18 01:47:16;;;;;;;0.30;0.30;;;6.30;99.90;;;6.21;81.42;100240.97;4973481;28;20684;-77
2022/04/18 01:49:44;;;;;;;0.47;0.47;;;6.30;99.90;;;6.15;80.00;100239.94;4938585;28;20237;-75
2022/04/18 01:52:12;;;;;;;0.50;0.50;;;6.30;99.90;;;5.98;79.80;100214.19;4942158;28;20205;-76
2022/04/18 01:54:42;;;;;;;0.30;0.30;;;6.20;99.90;;;5.82;79.47;100206.75;4960866;28;20212;-78
2022/04/18 01:57:13;;;;;;;0.30;0.30;;;6.10;99.90;;;6.09;78.89;100228.47;4952488;28;20659;-76
2022/04/18 01:59:44;;;;;;;0.35;0.35;;;6.10;99.90;;;5.93;81.63;100242.06;4955557;28;20236;-77
2022/04/18 02:02:13;;;;;;;0.30;0.30;;;6.10;99.90;;;5.99;80.76;100243.94;4947383;28;20216;-77
2022/04/18 02:04:41;;;;;;;0.75;0.75;;;6.10;99.90;;;5.88;80.42;100230.53;4955253;28;20259;-76
2022/04/18 02:07:11;;;;;;;0.40;0.40;;;6.10;99.90;;;5.79;81.76;100235.56;4960169;28;20212;-75
2022/04/18 02:09:46;;;;;;;0.50;0.50;;;6.00;99.90;;;5.56;81.88;100214.00;4951612;28;20264;-75
2022/04/18 02:12:14;;;;;;;0.50;0.50;;;5.90;99.90;;;5.53;81.59;100213.91;4963700;28;20201;-75
2022/04/18 02:14:57;;;;;;;0.47;0.47;;;5.90;99.90;;;5.55;82.94;100243.69;4980922;28;20211;-75
2022/04/18 02:17:27;;;;;;;0.30;0.30;;;5.80;99.90;;;5.40;84.28;100249.41;4974150;28;20210;-75
2022/04/18 02:19:55;;;;;;;0.40;0.40;;;5.70;99.90;;;5.29;85.13;100255.22;4956261;28;20225;-75
2022/04/18 02:22:24;;;;;;;0.40;0.40;;;;;;;5.26;85.10;100255.13;4955297;28;20216;-75
2022/04/18 02:24:52;;;;;;;0.47;0.47;;;5.70;99.90;;;5.32;85.65;100294.63;4946206;28;20212;-75
2022/04/18 02:27:20;;;;;;;0.50;0.50;;;5.70;99.90;;;4.98;87.55;100279.66;4936711;28;20697;-76
2022/04/18 02:29:50;;;;;;;0.40;0.40;;;5.60;99.90;;;5.15;87.42;100299.38;4956034;28;20225;-75
2022/04/18 02:35:07;;;;;;;0.40;0.40;;;5.50;99.90;;;5.18;87.55;100330.03;4972115;28;20201;-78
2022/04/18 02:37:35;;;;;;;0.55;0.55;;;5.50;99.90;;;5.06;88.53;100328.84;4956949;28;20670;-77
2022/04/18 02:40:06;;;;;;;0.60;0.60;;;5.40;99.90;;;5.17;89.12;100370.19;4951390;28;20222;-77
2022/04/18 02:42:34;;;;;;;0.30;0.30;;;5.40;99.90;;;5.15;88.62;100362.28;4971878;28;20212;-76
2022/04/18 02:45:02;;;;;;;0.45;0.45;;;5.40;99.90;;;5.17;87.81;100357.09;4956017;28;20205;-76
2022/04/18 02:47:51;;;;;;;0.30;0.30;;;5.40;99.90;;;5.00;87.70;100351.34;4969548;28;20228;-79
2022/04/18 02:50:18;;;;;;;0.30;0.30;;;5.40;99.90;;;5.14;86.30;100352.66;4974085;28;20226;-76
2022/04/18 02:52:46;;;;;;;0.60;0.60;;;5.40;99.90;;;5.09;85.75;100342.03;4945066;28;20201;-77
2022/04/18 02:55:17;;;;;;;0.40;0.40;;;5.40;99.90;;;5.22;85.95;100360.78;4955305;28;20205;-76
2022/04/18 02:57:45;;;;;;;0.40;0.40;;;5.40;99.90;;;5.33;84.16;100360.22;4954690;28;20220;-77
2022/04/18 03:00:14;;;;;;;0.40;0.40;;;5.40;99.90;;;5.16;85.19;100343.09;4954365;28;20229;-79
2022/04/18 03:02:46;;;;;;;0.43;0.43;;;5.40;99.90;;;4.89;88.17;100351.03;4951971;28;20228;-76
2022/04/18 03:05:14;;;;;;;0.40;0.40;;;5.30;99.90;;;4.78;88.57;100347.19;4953812;28;20248;-75
2022/04/18 03:07:42;;;;;;;0.40;0.40;;;5.40;99.90;;;4.80;88.03;100345.50;4932924;28;20213;-75
2022/04/18 03:10:14;;;;;;;0.30;0.30;;;5.10;99.90;;;4.85;87.89;100348.25;4956719;28;20232;-75
2022/04/18 03:12:42;;;;;;;0.30;0.30;;;5.10;99.90;;;4.66;90.69;100365.16;4959662;28;20658;-75
2022/04/18 03:15:10;;;;;;;0.30;0.30;;;5.10;99.90;;;4.66;89.50;100352.06;4954906;28;20253;-75
2022/04/18 03:17:38;;;;;;;0.30;0.30;;;5.00;99.90;;;4.42;90.97;100357.41;4972026;28;20217;-76
2022/04/18 03:20:07;;;;;;;0.40;0.40;;;5.10;99.90;;;4.55;92.84;100382.25;4953232;28;20234;-75
2022/04/18 03:22:36;;;;;;;0.50;0.50;;;4.80;99.90;;;4.41;92.08;100387.03;4953094;28;20213;-75
2022/04/18 03:25:09;;;;;;;0.30;0.30;;;4.80;99.90;;;4.17;94.31;100388.00;4958235;28;20209;-75
2022/04/18 03:27:37;;;;;;;0.40;0.40;;;4.80;99.90;;;4.29;92.23;100397.09;4955688;28;20214;-76
2022/04/18 03:30:06;;;;;;;0.30;0.30;;;4.70;99.90;;;3.82;95.03;100376.28;4969098;28;20229;-75
2022/04/18 03:32:43;;;;;;;0.40;0.40;;;4.50;99.90;;;3.78;95.91;100382.25;4945584;28;20210;-75
2022/04/18 03:35:11;;;;;;;0.40;0.40;;;;;;;4.07;96.49;100430.41;4958510;28;20205;-75
2022/04/18 03:40:36;;;;;;;0.30;0.30;;;4.40;99.90;;;4.26;92.67;100429.31;4921524;28;20214;-76
2022/04/18 03:43:05;;;;;;;0.30;0.30;;;4.40;99.90;;;4.33;93.05;100426.06;4951893;28;20216;-77
2022/04/18 03:45:33;;;;;;;0.47;0.47;;;;;;;4.40;93.00;100451.59;4963051;28;20201;-77
2022/04/18 03:48:01;;;;;;;0.40;0.40;;;4.50;99.90;;;4.13;95.31;100424.50;4955003;28;20573;-78
2022/04/18 03:50:30;;;;;;;0.38;0.38;;;4.40;99.90;;;4.00;94.81;100419.66;4955100;28;20221;-76
2022/04/18 03:52:58;;;;;;;1.02;1.02;;;4.50;99.90;;;4.73;92.18;100503.34;4952692;28;20214;-77
2022/04/18 03:55:36;;;;;;;0.38;0.38;;;4.40;99.90;;;4.66;89.98;100465.56;4944623;28;20220;-75
2022/04/18 03:58:15;;;;;;;0.50;0.50;;;4.60;99.90;;;4.56;90.86;100444.25;4954384;28;20211;-75
2022/04/18 04:00:44;;;;;;;0.60;0.60;;;4.60;99.90;;;4.38;91.57;100429.72;4970297;28;20209;-75
2022/04/18 04:03:13;;;;;;;0.40;0.40;;;4.60;99.90;;;4.30;92.17;100420.72;4969907;28;20205;-75
2022/04/18 04:05:48;;;;;;;0.30;0.30;;;4.50;99.90;;;4.34;91.98;100425.22;4953679;28;20209;-75
2022/04/18 04:08:22;;;;;;;0.40;0.40;;;4.50;99.90;;;4.52;91.44;100472.06;4954022;28;20220;-75
2022/04/18 04:10:54;;;;;;;0.40;0.40;;;4.50;99.90;;;4.32;91.23;100432.13;4951956;28;20209;-75
2022/04/18 04:13:27;;;;;;;0.20;0.20;;;4.50;99.90;;;4.51;90.51;100444.09;4960020;28;20221;-75
2022/04/18 04:16:05;;;;;;;0.30;0.30;;;4.50;99.90;;;4.40;89.79;100435.91;4955258;28;20208;-75
2022/04/18 04:18:33;;;;;;;0.40;0.40;;;4.70;99.90;;;3.98;91.67;100410.88;4959265;28;20237;-75
2022/04/18 04:21:05;;;;;;;0.35;0.35;;;4.40;99.90;;;4.34;90.17;100432.19;4953319;28;20602;-75
2022/04/18 04:23:33;;;;;;;0.22;0.22;;;4.50;99.90;;;4.46;89.97;100449.19;4954726;28;20201;-75
2022/04/18 04:26:30;;;;;;;0.30;0.30;;;4.40;99.90;;;4.22;90.31;100431.75;4971959;28;20562;-76
2022/04/18 04:28:59;;;;;;;0.40;0.40;;;4.40;99.90;;;4.04;93.24;100432.91;4958284;28;20236;-75
2022/04/18 04:31:50;;;;;;;0.40;0.40;;;4.50;99.90;;;3.84;94.51;100431.28;4967090;28;20202;-76
2022/04/18 04:34:19;;;;;;;0.35;0.35;;;4.30;99.90;;;4.18;92.83;100476.16;4961444;28;20216;-76
2022/04/18 04:37:01;;;;;;;0.40;0.40;;;4.20;99.90;;;4.43;91.07;100495.34;4959888;28;20205;-76
2022/04/18 04:39:29;;;;;;;0.30;0.30;;;4.30;99.90;;;3.89;94.00;100455.00;4957797;28;20237;-76
2022/04/18 04:41:59;;;;;;;0.32;0.32;;;4.30;99.90;;;3.87;95.60;100454.94;4972599;28;20240;-76
2022/04/18 04:44:27;;;;;;;0.40;0.40;;;4.20;99.90;;;3.88;96.76;100474.13;4970489;28;20209;-75
2022/04/18 04:46:59;;;;;;;0.40;0.40;;;4.20;99.90;;;3.69;99.03;100480.41;4954448;28;20224;-74
2022/04/18 04:49:29;;;;;;;0.40;0.40;;;4.20;99.90;;;3.76;96.07;100477.19;4959130;28;20226;-77
2022/04/18 04:52:35;;;;;;;0.47;0.47;;;4.00;99.90;;;4.07;93.64;100516.75;4911755;29;20215;-77
2022/04/18 04:55:06;;;;;;;0.30;0.30;;;4.10;99.90;;;4.20;93.86;100519.81;4909740;29;20222;-80
2022/04/18 04:57:44;;;;;;;0.50;0.50;;;4.10;99.90;;;3.99;96.08;100523.44;4929475;28;20205;-78
2022/04/18 05:00:45;;;;;;;0.40;0.40;;;4.20;99.90;;;4.01;96.06;100527.00;4974190;28;20204;-75
2022/04/18 05:03:34;;;;;;;0.30;0.30;;;4.10;99.90;;;4.07;96.97;100549.88;4966582;28;20201;-76
2022/04/18 05:06:03;;;;;;;0.30;0.30;;;4.20;99.90;;;4.03;96.23;100543.66;4963168;28;20212;-78
2022/04/18 05:08:43;;;;;;;0.30;0.30;;;4.10;99.90;;;4.10;95.35;100548.28;4963783;28;20232;-78
2022/04/18 05:11:13;;;;;;;0.20;0.20;;;4.10;99.90;;;4.12;94.46;100546.59;4957778;28;20213;-78
2022/04/18 05:13:46;;;;;;;0.30;0.30;;;4.10;99.90;;;4.14;95.33;100549.28;4949313;28;20216;-76
2022/04/18 05:16:16;;;;;;;0.30;0.30;;;4.10;99.90;;;4.04;96.89;100553.28;4948479;28;20213;-76
2022/04/18 05:18:53;;;;;;;0.30;0.30;;;4.20;99.90;;;4.01;95.67;100545.31;4966039;28;20229;-78
2022/04/18 05:21:21;;;;;;;0.30;0.30;;;4.20;99.90;;;4.13;97.61;100584.13;4983883;28;20204;-79
2022/04/18 05:23:52;;;;;;;0.30;0.30;;;4.20;99.90;;;4.28;95.79;100595.16;4982783;28;20212;-78
2022/04/18 05:26:21;;;;;;;0.30;0.30;;;4.20;99.90;;;4.48;95.16;100617.72;4973341;28;20197;-79
2022/04/18 05:28:50;;;;;;;0.32;0.32;;;4.30;99.90;;;4.38;96.97;100613.00;4973869;28;20229;-78
2022/04/18 05:31:19;;;;;;;0.30;0.30;;;4.40;99.90;;;4.19;97.62;100592.22;4957837;28;20205;-80
2022/04/18 05:33:50;;;;;;;0.30;0.30;;;4.30;99.90;;;4.35;97.25;100605.03;4957950;28;20201;-78
2022/04/18 05:36:34;;;;;;;0.40;0.40;;;4.30;99.90;;;4.35;96.47;100605.03;4957703;28;20708;-78
2022/04/18 05:39:05;;;;;;;0.40;0.40;;;4.30;99.90;;;4.54;95.66;100627.53;4955131;28;20229;-77
2022/04/18 05:41:39;;;;;;;0.40;0.40;;;4.50;99.90;;;4.67;93.61;100619.28;4971909;28;20550;-79
2022/04/18 05:44:07;;;;;;;0.30;0.30;;;4.60;99.90;;;4.65;92.72;100602.63;4957390;28;20201;-79
2022/04/18 05:46:49;;;;;;;0.68;0.68;;;4.60;99.90;;;4.85;91.93;100612.91;4955532;28;20210;-78
2022/04/18 05:49:18;;;;;;;0.40;0.40;;;4.60;99.90;;;4.95;91.26;100621.13;4974119;28;20238;-77
2022/04/18 05:51:46;;;;;;;0.50;0.50;;;4.70;99.90;;;4.99;90.78;100609.91;4965530;28;20220;-78
2022/04/18 05:54:15;;;;;;;0.30;0.30;;;4.70;99.90;;;5.21;89.71;100622.06;4943555;28;20221;-79
2022/04/18 05:56:52;;;;;;;0.30;0.30;;;4.90;99.90;;;5.43;88.38;100624.53;4958282;28;20227;-78
2022/04/18 05:59:31;;;;;;;0.22;0.22;;;4.90;99.90;;;5.46;87.83;100610.63;4956432;28;20236;-78
2022/04/18 06:02:03;;;;;;;0.30;0.30;;;5.10;99.90;;;5.70;85.71;100611.41;4958162;28;20232;-78
2022/04/18 06:04:36;;;;;;;0.30;0.30;;;5.10;99.90;;;5.66;85.01;100577.16;4955828;28;20217;-78
2022/04/18 06:07:34;;;;;;;0.35;0.35;;;5.30;99.90;;;5.75;85.79;100586.19;4959057;28;20209;-78
2022/04/18 06:10:21;;;;;;;0.30;0.30;;;;;;;5.97;84.54;100598.28;4967009;28;20233;-79
2022/04/18 06:12:58;;;;;;;0.30;0.30;;;5.30;99.90;;;6.24;82.74;100595.56;4955434;28;20682;-78
2022/04/18 06:15:26;;;;;;;0.30;0.30;;;;;;;6.16;82.86;100567.31;4975441;28;20209;-78
2022/04/18 06:17:56;;;;;;;0.40;0.40;;;5.70;99.90;;;6.31;82.71;100570.38;4955480;28;20290;-79
2022/04/18 06:20:24;;;;;;;0.30;0.30;;;5.80;99.90;;;6.34;83.05;100573.97;4956516;28;20698;-78
2022/04/18 06:22:52;;;;;;;0.50;0.50;;;5.90;99.90;;;6.44;83.60;100580.38;4939018;28;20236;-78
2022/04/18 06:25:21;;;;;;;0.30;0.30;;;6.00;99.90;;;6.64;82.46;100589.72;4940780;28;20202;-77
2022/04/18 06:27:49;;;;;;;0.30;0.30;;;6.10;99.90;;;6.64;82.76;100583.56;4971590;28;20213;-77
2022/04/18 06:30:18;;;;;;;0.40;0.40;;;6.40;99.90;;;7.09;80.99;100615.44;4956969;28;20229;-78
2022/04/18 06:33:11;;;;;;;0.30;0.30;;;6.30;99.90;;;7.13;80.50;100577.84;4970881;28;20216;-79
2022/04/18 06:35:41;;;;;;;0.47;0.47;;;6.40;99.90;;;7.14;79.61;100553.34;4953373;28;20216;-78
2022/04/18 06:38:10;;;;;;;0.45;0.45;;;6.80;99.90;;;7.50;78.23;100563.84;4969809;28;20228;-77
2022/04/18 06:40:59;;;;;;;0.40;0.40;;;6.70;99.90;;;7.44;77.72;100525.97;4969518;28;20201;-78
2022/04/18 06:43:28;;;;;;;0.30;0.30;;;6.90;99.90;;;7.69;76.90;100536.19;4955839;28;20232;-78
2022/04/18 06:45:58;;;;;;;0.30;0.30;;;;;;;7.70;76.04;100507.28;4954949;28;20215;-79
2022/04/18 06:48:27;;;;;;;0.30;0.30;;;;;;;7.88;77.09;100513.81;4963824;28;20224;-79
2022/04/18 06:51:15;;;;;;;0.30;0.30;;;;;;;8.08;75.00;100507.22;4961309;28;20512;-79
2022/04/18 06:53:46;;;;;;;0.60;0.60;;;7.50;99.90;;;8.13;73.17;100459.91;4972571;28;20213;-79
2022/04/18 06:57:02;;;;;;;0.30;0.30;;;7.50;99.90;;;8.25;74.93;100479.47;4914038;29;20210;-78
2022/04/18 06:59:47;;;;;;;0.30;0.30;;;7.70;99.90;;;8.43;73.88;100472.78;4935517;28;20710;-78
2022/04/18 07:02:17;;;;;;;0.43;0.43;;;7.80;99.90;;;8.48;74.33;100461.47;4969034;28;20217;-78
2022/04/18 07:04:45;;;;;;;0.28;0.28;;;7.90;99.90;;;8.69;73.46;100470.63;4937821;28;20209;-78
2022/04/18 07:07:13;;;;;;;0.40;0.40;;;8.00;99.90;;;8.64;72.41;100447.69;4949329;28;20201;-77
2022/04/18 07:09:41;;;;;;;0.30;0.30;;;8.20;99.90;;;8.70;71.58;100410.00;4934909;28;20252;-77
2022/04/18 07:12:12;;;;;;;0.30;0.30;;;8.30;99.90;;;8.90;72.86;100424.38;4972049;28;20669;-77
2022/04/18 07:14:41;;;;;;;0.35;0.35;;;;;;;9.12;70.97;100415.09;4952678;28;20217;-76
2022/04/18 07:17:11;;;;;;;0.90;0.90;;;8.50;99.90;;;9.10;70.19;100386.88;4937171;28;20206;-75
2022/04/18 07:19:39;;;;;;;0.40;0.40;;;8.60;99.90;;;9.34;70.16;100389.00;4949157;28;20232;-75
2022/04/18 07:22:13;;;;;;;0.47;0.47;;;8.90;99.90;;;9.61;70.47;100415.75;4968339;28;20239;-74
2022/04/18 07:24:43;;;;;;;0.30;0.30;;;8.90;99.90;;;9.58;70.68;100400.75;4968503;28;20212;-77
2022/04/18 07:27:12;;;;;;;0.30;0.30;;;;;;;9.70;68.77;100364.78;4952220;28;20244;-77
2022/04/18 07:29:46;;;;;;;0.32;0.32;;;9.20;99.90;;;9.46;66.63;100287.09;4963794;28;20224;-77
2022/04/18 07:32:14;;;;;;;0.40;0.40;;;9.20;99.90;;;9.68;66.86;100298.78;4951760;28;20209;-75
2022/04/18 07:34:42;;;;;;;0.30;0.30;;;9.30;99.90;;;9.88;66.21;100286.63;4943571;28;20229;-75
2022/04/18 07:37:22;;;;;;;0.50;0.50;;;9.50;99.90;;;10.10;64.80;100258.66;4969757;28;20208;-75
2022/04/18 07:39:53;;;;;;;0.30;0.30;;;9.50;99.90;;;10.19;64.44;100245.50;4966346;28;20233;-76
2022/04/18 07:42:20;;;;;;;0.30;0.30;;;9.70;99.90;;;10.24;63.90;100221.78;4967707;28;20205;-78
2022/04/18 07:44:48;;;;;;;0.30;0.30;;;9.90;99.90;;;10.15;62.34;100187.34;4972424;28;20209;-78
2022/04/18 07:47:17;;;;;;;0.30;0.30;;;10.10;99.90;;;10.31;62.57;100176.03;4969509;28;20206;-77
2022/04/18 07:49:44;;;;;;;0.30;0.30;;;10.20;99.90;;;10.29;62.12;100159.28;4953270;28;20229;-77
2022/04/18 07:52:13;;;;;;;0.30;0.30;;;10.20;99.90;;;10.38;61.77;100148.75;4971821;28;20204;-76
2022/04/18 07:54:58;;;;;;;0.30;0.30;;;10.20;99.90;;;10.65;61.84;100163.00;4954854;28;20219;-77
2022/04/18 07:57:27;;;;;;;0.30;0.30;;;10.70;99.90;;;10.82;61.83;100163.97;4955158;28;20614;-76
2022/04/18 08:00:07;;;;;;;0.30;0.30;;;10.60;99.90;;;11.39;61.91;100221.47;4954030;28;20237;-76
2022/04/18 08:02:40;;;;;;;0.20;0.20;;;11.00;99.90;;;11.20;61.78;100179.97;4967448;28;20210;-76
2022/04/18 08:05:11;;;;;;;0.25;0.25;;;11.20;99.90;;;10.90;60.90;100109.31;4954856;28;20208;-78
2022/04/18 08:08:00;;;;;;;0.30;0.30;;;11.20;99.90;;;11.45;61.64;100162.34;4952072;28;20209;-76
2022/04/18 08:10:29;;;;;;;0.30;0.30;;;11.30;99.90;;;11.55;60.53;100135.00;4952649;28;20730;-74
2022/04/18 08:12:57;;;;;;;0.20;0.20;;;11.40;99.90;;;11.72;61.32;100153.56;4950677;28;20217;-74
2022/04/18 08:15:37;;;;;;;0.20;0.20;;;11.40;99.90;;;11.66;60.12;100112.03;4968483;28;20216;-76
2022/04/18 08:18:26;;;;;;;0.22;0.22;;;11.90;99.90;;;11.70;60.74;100110.25;4950214;28;20205;-82
2022/04/18 08:20:55;;;;;;;0.20;0.20;;;11.90;99.90;;;11.54;60.95;100078.50;4950839;28;20205;-81
2022/04/18 08:23:23;;;;;;;0.28;0.28;;;11.70;99.90;;;11.79;60.87;100090.00;4964985;28;20240;-84
2022/04/18 08:26:11;;;;;;;0.30;0.30;;;11.80;99.90;;;12.04;60.58;100098.81;4968570;28;20299;-77
2022/04/18 08:28:46;;;;;;;0.30;0.30;;;11.90;99.90;;;12.07;60.77;100097.91;4948482;28;20233;-77
2022/04/18 08:31:14;;;;;;;0.30;0.30;;;12.30;99.90;;;12.24;60.00;100087.25;4970146;28;20217;-80
2022/04/18 08:34:18;;;;;;;0.20;0.20;;;12.40;99.90;;;12.01;59.79;100043.16;4914172;29;20215;-80
2022/04/18 08:36:46;;;;;;;0.28;0.28;;;12.30;99.90;;;12.23;60.00;100061.63;4942347;28;20208;-79
2022/04/18 08:39:14;;;;;;;0.20;0.20;;;12.60;99.90;;;11.94;60.54;100035.22;4966861;28;20236;-75
2022/04/18 08:41:52;;;;;;;0.40;0.40;;;12.60;99.90;;;12.72;60.82;100110.91;4949458;28;20875;-77
2022/04/18 08:44:51;;;;;;;0.20;0.20;;;12.80;99.90;;;12.59;59.20;100044.69;4952020;28;20232;-78
2022/04/18 08:52:57;;;;;;;0.40;0.40;;;13.70;99.90;;;13.41;58.16;100030.88;4937278;28;20224;-78
2022/04/18 08:55:43;;;;;;;0.25;0.25;;;13.90;99.90;;;12.98;58.71;99983.38;4949168;28;20216;-77
2022/04/18 08:58:29;;;;;;;0.57;0.57;;;13.40;99.90;;;13.14;57.68;99966.47;4939370;28;20209;-79
2022/04/18 09:01:00;;;;;;;0.30;0.30;;;13.50;99.90;;;13.13;58.30;99963.81;4967577;28;20205;-82
2022/04/18 09:03:53;;;;;;;0.30;0.30;;;13.50;99.90;;;12.79;56.34;99849.97;4966915;28;20224;-82
2022/04/18 09:06:29;;;;;;;0.28;0.28;;;13.50;99.90;;;13.59;58.52;100000.59;4950606;28;20208;-76
2022/04/18 09:09:07;;;;;;;0.60;0.60;;;13.90;99.90;;;13.59;58.28;99987.31;4945531;28;20240;-76
2022/04/18 09:11:37;;;;;;;0.30;0.30;;;14.30;99.90;;;13.71;56.81;99960.59;4951636;28;20224;-81
2022/04/18 09:14:18;;;;;;;0.32;0.32;;;14.40;99.90;;;14.67;58.50;100095.13;4970345;28;20213;-79
2022/04/18 09:16:50;;;;;;;0.47;0.47;;;14.80;99.90;;;14.22;56.15;99871.31;4966369;28;20217;-80
2022/04/18 09:19:44;;;;;;;0.22;0.22;;;;;;;14.25;56.82;99895.22;4941523;28;20237;-77
2022/04/18 09:22:15;;;;;;;0.20;0.20;;;15.20;99.90;;;14.25;58.23;99934.22;4953350;28;20209;-77
2022/04/18 09:24:47;;;;;;;0.20;0.20;;;14.60;99.90;;;14.07;56.46;99855.59;4970202;28;20243;-79
2022/04/18 09:27:29;;;;;;;0.20;0.20;;;13.70;99.90;;;14.66;56.64;99934.56;4967873;28;20202;-79
2022/04/18 09:30:11;;;;;;;0.20;0.20;;;15.10;99.90;;;14.51;55.72;99876.25;4972079;28;20220;-80
2022/04/18 09:33:04;;;;;;;0.35;0.28;;;15.30;99.90;;;14.86;56.78;99928.91;4957489;28;20209;-80
2022/04/18 09:35:39;;;;;;;0.17;0.17;;;15.80;99.90;;;14.83;55.82;99885.50;4943519;28;20706;-76
2022/04/18 09:38:09;;;;;;;0.30;0.30;;;15.80;99.90;;;14.66;56.14;99838.75;4977381;28;20205;-80
2022/04/18 09:41:03;;;;;;;0.40;0.40;;;15.70;99.90;;;15.09;55.35;99885.03;4971747;28;20209;-76
2022/04/18 09:43:44;;;;;;;0.20;0.20;;;15.60;99.90;;;14.97;54.91;99832.88;4957189;28;20206;-75
2022/04/18 09:46:17;;;;;;;0.40;0.40;;;16.20;99.90;;;15.37;55.87;99889.81;4952353;28;20216;-77
2022/04/18 09:48:53;;;;;;;0.40;0.40;;;16.20;99.90;;;16.02;56.95;99976.59;4937281;28;20227;-78
2022/04/18 09:51:29;;;;;;;0.40;0.40;;;16.50;99.90;;;16.23;54.59;99870.28;4951128;28;20687;-83
2022/04/18 09:54:20;;;;;;;0.43;0.40;;;17.50;99.90;;;15.58;54.60;99784.63;4960395;28;20205;-77
2022/04/18 09:56:51;;;;;;;0.30;0.30;;;16.50;99.90;;;15.14;54.43;99702.94;4983022;28;20213;-79
2022/04/18 09:59:20;;;;;;;0.30;0.30;;;16.50;99.90;;;15.62;55.82;99805.00;4956969;28;20237;-79
2022/04/18 10:01:48;;;;;;;0.40;0.40;;;16.60;99.90;;;15.75;56.10;99816.28;4973395;28;20217;-80
2022/04/18 10:04:16;;;;;;;0.20;0.20;;;16.60;99.90;;;17.02;54.42;99942.31;4957144;28;20237;-77
2022/04/18 10:06:45;;;;;;;0.30;0.30;;;17.00;99.90;;;15.86;53.88;99717.38;4936165;28;20210;-78
2022/04/18 10:09:15;;;;;;;0.25;0.25;;;;;;;15.02;52.91;99578.06;4969529;28;20241;-78
2022/04/18 10:11:44;;;;;;;0.35;0.32;;;;;;;16.85;54.09;99867.03;4952631;28;20212;-76
2022/04/18 10:14:12;;;;;;;0.55;0.55;;;17.10;99.90;;;16.13;52.60;99652.69;4951493;28;20224;-76
2022/04/18 10:16:41;;;;;;;0.63;0.63;;;17.50;99.00;;;17.50;53.33;99851.06;4939662;28;20317;-82
2022/04/18 10:20:05;;;;;;;0.20;0.20;;;17.90;99.90;;;16.31;53.92;99681.56;4953357;28;20690;-79
2022/04/18 10:23:05;;;;;;;0.30;0.30;;;18.20;99.60;;;16.87;52.80;99723.66;4968566;28;20217;-80
2022/04/18 10:26:03;;;;;;;0.55;0.55;;;18.60;99.50;;;16.53;52.86;99660.50;4973461;28;20241;-81
2022/04/18 10:28:41;;;;;;;0.28;0.28;;;18.70;97.80;;;16.95;51.92;99676.28;4966282;28;20610;-75
2022/04/18 10:31:32;;;;;;;0.20;0.20;;;18.70;96.60;;;16.68;52.39;99615.63;4947443;28;20670;-76
2022/04/18 10:34:00;;;;;;;0.32;0.32;;;18.90;96.10;;;17.07;52.16;99675.06;4938110;28;20683;-76
2022/04/18 10:36:31;;;;;;;0.30;0.30;;;18.30;96.90;;;16.90;54.34;99688.88;4951608;28;20213;-76
2022/04/18 10:39:07;;;;;;;3.40;1.95;;;18.50;99.20;;;17.44;52.20;99699.75;4968632;28;20233;-76
2022/04/18 10:41:41;;;;;;;0.40;0.40;;;18.70;95.40;;;17.11;52.62;99633.97;4964051;28;20212;-77
2022/04/18 10:44:11;;;;;;;0.20;0.20;;;18.70;95.10;;;16.48;51.78;99488.94;4965228;28;20228;-77
2022/04/18 10:47:03;;;;;;;0.13;0.13;;;18.00;95.30;;;16.90;53.76;99607.00;4969095;28;20209;-76
2022/04/18 10:49:32;;;;;;;0.20;0.20;;;18.10;95.00;;;17.05;51.83;99581.63;4968701;28;20248;-77
2022/04/18 10:52:23;;;;;;;;;;;;;;;;;;;;;
2022/04/18 10:54:59;;;;;;;0.30;0.30;;;18.70;95.70;;;17.72;52.12;99624.03;4970081;28;20209;-79
2022/04/18 10:57:30;;;;;;;0.20;0.20;;;19.40;95.70;;;17.24;51.83;99533.81;4965882;28;20209;-77
2022/04/18 10:59:58;;;;;;;0.20;0.20;;;19.30;94.40;;;17.46;49.63;99517.94;4950773;28;20228;-79
2022/04/18 11:02:44;;;;;;;0.30;0.30;;;20.30;98.10;;;19.55;51.26;99754.19;4951997;28;20216;-79
2022/04/18 11:05:11;;;;;;;0.47;0.47;;;21.30;95.70;;;18.84;51.56;99611.19;4973502;28;20251;-79
2022/04/18 11:07:46;;;;;;;0.30;0.30;;;21.90;96.20;;;18.60;49.19;99526.38;4971778;28;20209;-79
2022/04/18 11:10:19;;;;;;;0.50;0.50;;;21.80;93.20;;;18.90;52.36;99615.44;4967500;28;20243;-77